Time;durP1;ratioP1;P1;durP2;ratioP2;P2;SDS_P1;SDS_P2;PMS_P1;PMS_P2;Temp;Humidity;BMP_temperature;BMP_pressure;BME280_temperature;BME280_humidity;BME280_pressure;Samples;Min_cycle;Max_cycle;Signal;HPM_P1;HPM_P2
2022/08/12 00:43:16;;;;;;;7.87;3.97;;;;;;;;;;4948000;28;20408;-34
2022/08/12 00:48:30;;;;;;;8.30;3.47;;;;;;;;;;4946831;28;20294;-34
2022/08/12 00:50:57;;;;;;;8.30;3.93;;;;;;;;;;4946715;28;20611;-35
2022/08/12 00:53:23;;;;;;;8.03;4.10;;;;;;;;;;4950319;28;20509;-34
2022/08/12 00:55:51;;;;;;;7.27;3.90;;;;;;;;;;4947669;28;20645;-36
2022/08/12 00:58:21;;;;;;;7.60;3.90;;;;;;;;;;4947721;28;20324;-34
2022/08/12 01:00:48;;;;;;;12.33;3.80;;;;;;;;;;4948524;28;20456;-35
2022/08/12 01:03:18;;;;;;;7.10;4.00;;;;;;;;;;4947495;28;20964;-37
2022/08/12 01:11:28;;;;;;;7.93;4.40;;;;;;;;;;4951105;28;20359;-35
2022/08/12 01:13:56;;;;;;;9.00;4.87;;;;;;;;;;4946596;28;20213;-35
2022/08/12 01:16:22;;;;;;;7.47;4.00;;;;;;;;;;4949896;28;20174;-36
2022/08/12 01:18:50;;;;;;;6.37;4.50;;;;;;;;;;4946936;28;20182;-37
2022/08/12 01:21:19;;;;;;;6.90;4.63;;;;;;;;;;4945620;28;20252;-39
2022/08/12 01:23:45;;;;;;;7.70;4.10;;;;;;;;;;4947151;28;20366;-35
2022/08/12 01:26:16;;;;;;;8.20;4.40;;;;;;;;;;4947046;28;20249;-40
2022/08/12 01:28:43;;;;;;;10.40;4.47;;;;;;;;;;4945462;28;20209;-39
2022/08/12 01:31:11;;;;;;;5.90;4.20;;;;;;;;;;4949165;28;20281;-39
2022/08/12 01:34:03;;;;;;;9.87;5.30;;;;;;;;;;4946540;28;20273;-37
2022/08/12 01:36:40;;;;;;;8.60;5.40;;;;;;;;;;4946401;28;20681;-40
2022/08/12 01:39:06;;;;;;;9.47;6.27;;;;;;;;;;4947460;28;20223;-40
2022/08/12 01:41:34;;;;;;;13.60;4.97;;;;;;;;;;4945560;28;20189;-40
2022/08/12 01:44:01;;;;;;;7.60;4.63;;;;;;;;;;4948597;28;20625;-39
2022/08/12 01:46:46;;;;;;;8.03;5.03;;;;;;;;;;4950774;28;20190;-40
2022/08/12 01:49:32;;;;;;;9.40;4.40;;;;;;;;;;4945664;28;20182;-41
2022/08/12 01:52:03;;;;;;;6.77;4.00;;;;;;;;;;4947891;28;20177;-39
2022/08/12 01:54:35;;;;;;;5.00;3.40;;;;;;;;;;4944290;28;20750;-41
2022/08/12 01:57:01;;;;;;;6.33;3.70;;;;;;;;;;4946637;28;20819;-39
2022/08/12 01:59:52;;;;;;;6.13;3.80;;;;;;;;;;4945182;28;20427;-41
2022/08/12 02:02:38;;;;;;;4.53;3.60;;;;;;;;;;4944666;28;20756;-39
2022/08/12 02:13:59;;;;;;;6.07;3.43;;;;;;;;;;4946227;28;20244;-40
2022/08/12 02:16:46;;;;;;;4.13;3.43;;;;;;;;;;4948843;28;20174;-39
2022/08/12 02:19:27;;;;;;;5.33;3.30;;;;;;;;;;4945914;28;20174;-41
2022/08/12 02:22:12;;;;;;;4.63;3.80;;;;;;;;;;4946814;28;20209;-40
2022/08/12 02:24:39;;;;;;;4.40;3.60;;;;;;;;;;4949335;28;20785;-40
2022/08/12 02:27:07;;;;;;;3.20;2.83;;;;;;;;;;4946554;28;20284;-39
2022/08/12 02:29:34;;;;;;;7.20;3.73;;;;;;;;;;4944156;28;20206;-40
2022/08/12 02:32:00;;;;;;;5.93;3.60;;;;;;;;;;4949075;28;20470;-40
2022/08/12 02:34:27;;;;;;;5.37;3.47;;;;;;;;;;4946814;28;20272;-41
2022/08/12 02:36:54;;;;;;;6.63;3.50;;;;;;;;;;4945618;28;20557;-40
2022/08/12 02:39:23;;;;;;;3.70;2.80;;;;;;;;;;4947910;28;20951;-39
2022/08/12 02:41:50;;;;;;;4.00;3.50;;;;;;;;;;4943511;28;20205;-41
2022/08/12 02:44:16;;;;;;;3.60;3.27;;;;;;;;;;4946698;28;20360;-41
2022/08/12 02:46:47;;;;;;;3.27;3.00;;;;;;;;;;4947665;28;20667;-41
2022/08/12 02:49:25;;;;;;;4.73;3.10;;;;;;;;;;4944784;28;20189;-41
2022/08/12 02:51:53;;;;;;;5.10;3.63;;;;;;;;;;4947489;28;20647;-41
2022/08/12 02:54:21;;;;;;;4.00;3.03;;;;;;;;;;4947990;28;20249;-42
2022/08/12 02:56:47;;;;;;;3.70;3.03;;;;;;;;;;4948165;28;20672;-40
2022/08/12 02:59:15;;;;;;;4.73;3.17;;;;;;;;;;4944600;28;20413;-42
2022/08/12 03:01:52;;;;;;;3.20;2.90;;;;;;;;;;4949088;28;20495;-41
2022/08/12 03:04:25;;;;;;;4.63;2.90;;;;;;;;;;4945652;28;20181;-42
2022/08/12 03:07:11;;;;;;;4.70;2.90;;;;;;;;;;4944353;28;20209;-42
2022/08/12 03:09:39;;;;;;;3.20;2.90;;;;;;;;;;4945389;28;20193;-40
2022/08/12 03:12:08;;;;;;;3.20;2.70;;;;;;;;;;4948301;28;20623;-42
2022/08/12 03:14:34;;;;;;;5.93;3.30;;;;;;;;;;4944773;28;20366;-40
2022/08/12 03:17:21;;;;;;;3.57;3.23;;;;;;;;;;4946432;28;20350;-41
2022/08/12 03:19:48;;;;;;;4.97;3.20;;;;;;;;;;4945565;28;20182;-42
2022/08/12 03:22:15;;;;;;;3.87;3.00;;;;;;;;;;4944066;28;20702;-40
2022/08/12 03:24:43;;;;;;;3.53;3.13;;;;;;;;;;4947077;28;20715;-40
2022/08/12 03:27:11;;;;;;;3.83;3.03;;;;;;;;;;4947058;28;20497;-42
2022/08/12 03:29:37;;;;;;;3.93;3.00;;;;;;;;;;4942385;28;20707;-42
2022/08/12 03:32:04;;;;;;;6.47;3.40;;;;;;;;;;4947601;28;20182;-40
2022/08/12 03:34:34;;;;;;;4.30;3.00;;;;;;;;;;4947476;28;20671;-42
2022/08/12 03:37:01;;;;;;;5.07;2.97;;;;;;;;;;4945835;28;20758;-41
2022/08/12 03:39:40;;;;;;;4.87;3.03;;;;;;;;;;4950652;28;20188;-42
2022/08/12 03:42:21;;;;;;;3.93;3.23;;;;;;;;;;4946184;28;20416;-42
2022/08/12 04:01:48;;;;;;;12.40;5.93;;;;;;;;;;4945546;28;20937;-42
2022/08/12 04:04:15;;;;;;;11.57;6.20;;;;;;;;;;4949487;28;20345;-42
2022/08/12 04:06:46;;;;;;;10.40;6.20;;;;;;;;;;4952005;28;20615;-42
2022/08/12 04:09:12;;;;;;;8.97;5.73;;;;;;;;;;4947548;28;20693;-42
2022/08/12 04:14:26;;;;;;;11.43;5.47;;;;;;;;;;4949832;28;20213;-42
2022/08/12 04:16:52;;;;;;;12.43;5.67;;;;;;;;;;4947668;28;20186;-42
2022/08/12 04:19:19;;;;;;;8.63;4.93;;;;;;;;;;4948287;28;20520;-42
2022/08/12 04:21:45;;;;;;;10.10;5.13;;;;;;;;;;4950231;28;20658;-42
2022/08/12 04:24:12;;;;;;;8.13;5.30;;;;;;;;;;4949897;28;20339;-42
2022/08/12 04:26:39;;;;;;;13.20;5.37;;;;;;;;;;4948965;28;20182;-42
2022/08/12 04:29:06;;;;;;;23.27;7.13;;;;;;;;;;4950078;28;20186;-42
2022/08/12 04:31:36;;;;;;;9.50;4.93;;;;;;;;;;4948842;28;20511;-42
2022/08/12 04:34:03;;;;;;;11.40;4.60;;;;;;;;;;4949215;28;20535;-42
2022/08/12 04:36:30;;;;;;;6.53;3.77;;;;;;;;;;4951187;28;20733;-42
2022/08/12 04:38:57;;;;;;;8.83;4.43;;;;;;;;;;4950889;28;20650;-42
2022/08/12 04:41:26;;;;;;;6.70;4.00;;;;;;;;;;4946888;28;20513;-42
2022/08/12 04:43:52;;;;;;;7.00;3.90;;;;;;;;;;4947554;28;20263;-42
2022/08/12 04:46:18;;;;;;;6.90;4.47;;;;;;;;;;4950389;28;20170;-42
2022/08/12 04:48:45;;;;;;;7.73;4.17;;;;;;;;;;4947781;28;20298;-42
2022/08/12 04:51:12;;;;;;;5.70;4.60;;;;;;;;;;4946287;28;20178;-42
2022/08/12 04:53:39;;;;;;;7.00;4.47;;;;;;;;;;4951160;28;20734;-42
2022/08/12 04:56:05;;;;;;;9.07;4.90;;;;;;;;;;4947223;28;20181;-42
2022/08/12 04:58:33;;;;;;;6.47;4.40;;;;;;;;;;4947742;28;20221;-42
2022/08/12 05:00:59;;;;;;;5.50;4.20;;;;;;;;;;4949360;28;20178;-43
2022/08/12 05:03:26;;;;;;;4.87;4.00;;;;;;;;;;4945985;28;20483;-42
2022/08/12 05:05:55;;;;;;;7.03;4.30;;;;;;;;;;4948580;28;20193;-42
2022/08/12 05:08:22;;;;;;;8.33;4.33;;;;;;;;;;4949282;28;20586;-42
2022/08/12 05:10:49;;;;;;;7.77;3.73;;;;;;;;;;4946679;28;20692;-42
2022/08/12 05:13:22;;;;;;;6.17;4.40;;;;;;;;;;4947954;28;20715;-43
2022/08/12 05:15:49;;;;;;;6.63;3.87;;;;;;;;;;4951360;28;20201;-43
2022/08/12 05:18:15;;;;;;;6.37;4.30;;;;;;;;;;4947648;28;20293;-43
2022/08/12 05:20:42;;;;;;;7.03;4.40;;;;;;;;;;4945318;28;20209;-43
2022/08/12 05:23:18;;;;;;;7.03;3.90;;;;;;;;;;4949582;28;20433;-43
2022/08/12 05:25:46;;;;;;;6.70;4.67;;;;;;;;;;4949732;28;20406;-43
2022/08/12 05:28:12;;;;;;;6.33;4.80;;;;;;;;;;4946889;28;20749;-45
2022/08/12 05:30:40;;;;;;;5.77;4.80;;;;;;;;;;4948205;28;20626;-45
2022/08/12 05:33:06;;;;;;;5.57;4.40;;;;;;;;;;4948727;28;20701;-44
2022/08/12 05:35:38;;;;;;;5.90;4.37;;;;;;;;;;4945605;28;20590;-45
2022/08/12 05:40:49;;;;;;;5.70;4.07;;;;;;;;;;4945280;28;20263;-45
2022/08/12 05:43:16;;;;;;;6.50;4.13;;;;;;;;;;4945072;28;20585;-45
2022/08/12 05:45:42;;;;;;;5.93;4.10;;;;;;;;;;4947748;28;20945;-45
2022/08/12 05:48:08;;;;;;;7.67;4.27;;;;;;;;;;4948435;28;21025;-45
2022/08/12 05:50:35;;;;;;;6.43;4.30;;;;;;;;;;4947744;28;20182;-45
2022/08/12 05:53:01;;;;;;;4.30;3.73;;;;;;;;;;4942786;28;20722;-45
2022/08/12 05:55:28;;;;;;;7.10;4.10;;;;;;;;;;4947825;28;20853;-45
2022/08/12 05:57:54;;;;;;;5.07;3.80;;;;;;;;;;4950027;28;20182;-56
2022/08/12 06:00:24;;;;;;;6.53;4.20;;;;;;;;;;4945260;28;20508;-46
2022/08/12 06:02:50;;;;;;;7.47;4.50;;;;;;;;;;4945200;28;20292;-45
2022/08/12 06:05:16;;;;;;;7.33;3.90;;;;;;;;;;4948450;28;20193;-45
2022/08/12 06:07:44;;;;;;;6.60;3.77;;;;;;;;;;4945587;28;20396;-45
2022/08/12 06:10:10;;;;;;;5.93;3.70;;;;;;;;;;4945140;28;20325;-46
2022/08/12 06:12:36;;;;;;;8.27;3.83;;;;;;;;;;4946620;28;20592;-46
2022/08/12 06:15:03;;;;;;;5.87;3.53;;;;;;;;;;4948550;28;21029;-44
2022/08/12 06:17:29;;;;;;;7.10;4.00;;;;;;;;;;4947108;28;20516;-44
2022/08/12 06:19:57;;;;;;;4.70;3.20;;;;;;;;;;4947466;28;20756;-44
2022/08/12 06:22:24;;;;;;;4.77;3.07;;;;;;;;;;4948582;28;20710;-44
2022/08/12 06:24:52;;;;;;;5.13;3.10;;;;;;;;;;4947049;28;20272;-45
2022/08/12 06:27:20;;;;;;;4.63;3.27;;;;;;;;;;4949345;28;20257;-44
2022/08/12 06:29:46;;;;;;;6.47;2.67;;;;;;;;;;4941152;28;20293;-45
2022/08/12 06:32:14;;;;;;;5.70;3.10;;;;;;;;;;4944534;28;20217;-45
2022/08/12 06:34:40;;;;;;;6.27;3.00;;;;;;;;;;4945113;28;20721;-45
2022/08/12 06:37:08;;;;;;;5.77;3.07;;;;;;;;;;4947622;28;20293;-44
2022/08/12 06:39:35;;;;;;;7.37;3.20;;;;;;;;;;4949991;28;20745;-45
2022/08/12 06:44:45;;;;;;;5.33;3.07;;;;;;;;;;4944836;28;20538;-45
2022/08/12 06:47:15;;;;;;;5.40;3.00;;;;;;;;;;4948772;28;20182;-45
2022/08/12 06:49:42;;;;;;;4.37;3.00;;;;;;;;;;4946046;28;20182;-45
2022/08/12 06:52:08;;;;;;;5.27;3.13;;;;;;;;;;4945608;28;20182;-45
2022/08/12 06:54:35;;;;;;;5.80;3.40;;;;;;;;;;4948895;28;20746;-45
2022/08/12 06:57:01;;;;;;;9.43;3.37;;;;;;;;;;4949637;28;20171;-45
2022/08/12 06:59:27;;;;;;;4.43;2.83;;;;;;;;;;4943933;28;20472;-45
2022/08/12 07:01:54;;;;;;;5.23;2.73;;;;;;;;;;4946094;28;20673;-45
2022/08/12 07:04:21;;;;;;;5.70;2.40;;;;;;;;;;4946038;28;20193;-45
2022/08/12 07:06:48;;;;;;;5.83;2.80;;;;;;;;;;4942963;28;20868;-45
2022/08/12 07:09:16;;;;;;;4.97;2.47;;;;;;;;;;4944029;28;20516;-45
2022/08/12 07:11:43;;;;;;;4.77;2.40;;;;;;;;;;4949750;28;20264;-45
2022/08/12 07:14:09;;;;;;;2.30;2.10;;;;;;;;;;4944290;28;20608;-45
2022/08/12 07:16:51;;;;;;;3.60;2.10;;;;;;;;;;4946626;28;20471;-45
2022/08/12 07:19:17;;;;;;;5.43;2.13;;;;;;;;;;4948677;28;20185;-45
2022/08/12 07:21:43;;;;;;;2.67;1.97;;;;;;;;;;4952595;28;20225;-45
2022/08/12 07:24:09;;;;;;;4.87;2.23;;;;;;;;;;4947644;28;20190;-45
2022/08/12 07:26:38;;;;;;;5.17;2.37;;;;;;;;;;4948836;28;21008;-45
2022/08/12 07:29:04;;;;;;;4.90;2.47;;;;;;;;;;4949597;28;20189;-45
2022/08/12 07:31:30;;;;;;;2.77;2.30;;;;;;;;;;4949382;28;20182;-45
2022/08/12 07:33:57;;;;;;;3.77;2.10;;;;;;;;;;4947346;28;20229;-45
2022/08/12 07:36:24;;;;;;;2.70;2.10;;;;;;;;;;4951951;28;21144;-45
2022/08/12 07:38:50;;;;;;;4.30;2.20;;;;;;;;;;4947827;28;20300;-45
2022/08/12 07:41:18;;;;;;;3.30;2.10;;;;;;;;;;4946129;28;20252;-45
2022/08/12 07:43:44;;;;;;;2.40;2.00;;;;;;;;;;4949568;28;20402;-45
2022/08/12 07:46:11;;;;;;;4.47;2.40;;;;;;;;;;4946326;28;20285;-45
2022/08/12 07:48:39;;;;;;;6.13;2.40;;;;;;;;;;4941754;28;20877;-45
2022/08/12 07:51:06;;;;;;;3.67;2.10;;;;;;;;;;4946603;28;20242;-45
2022/08/12 07:53:33;;;;;;;4.00;2.60;;;;;;;;;;4947070;28;20252;-45
2022/08/12 07:55:59;;;;;;;6.23;2.67;;;;;;;;;;4975263;28;20189;-45
2022/08/12 07:58:25;;;;;;;3.03;2.40;;;;;;;;;;4941435;28;20178;-45
2022/08/12 08:00:56;;;;;;;3.13;2.33;;;;;;;;;;4941368;28;21886;-45
2022/08/12 08:03:24;;;;;;;6.07;2.50;;;;;;;;;;4947396;28;20637;-45
2022/08/12 08:05:50;;;;;;;5.57;2.30;;;;;;;;;;4949671;28;20733;-45
2022/08/12 08:08:17;;;;;;;3.73;2.20;;;;;;;;;;4950963;28;20185;-45
2022/08/12 08:10:45;;;;;;;3.53;2.27;;;;;;;;;;4946056;28;20854;-45
2022/08/12 08:13:11;;;;;;;3.73;2.30;;;;;;;;;;4949216;28;20237;-45
2022/08/12 08:15:38;;;;;;;3.60;2.27;;;;;;;;;;4950412;28;20602;-45
2022/08/12 08:18:09;;;;;;;2.63;2.20;;;;;;;;;;4949319;28;20201;-45
2022/08/12 08:20:38;;;;;;;3.20;2.00;;;;;;;;;;4947584;28;20186;-45
2022/08/12 08:23:07;;;;;;;4.27;2.07;;;;;;;;;;4949889;28;20474;-45
2022/08/12 08:25:37;;;;;;;5.30;2.03;;;;;;;;;;4947035;28;20250;-45
2022/08/12 08:28:24;;;;;;;4.03;2.30;;;;;;;;;;4949397;28;21895;-45
2022/08/12 08:30:51;;;;;;;3.40;2.20;;;;;;;;;;4953468;28;20293;-45
2022/08/12 08:33:17;;;;;;;4.33;2.10;;;;;;;;;;4951526;28;20198;-45
2022/08/12 08:35:44;;;;;;;3.20;1.97;;;;;;;;;;4953797;28;20765;-45
2022/08/12 08:38:16;;;;;;;2.53;1.83;;;;;;;;;;4952480;28;20700;-45
2022/08/12 08:43:28;;;;;;;5.70;2.10;;;;;;;;;;4955017;28;20727;-45
2022/08/12 08:45:59;;;;;;;4.37;1.93;;;;;;;;;;4951869;28;20634;-45
2022/08/12 08:48:28;;;;;;;3.10;1.60;;;;;;;;;;4952791;28;20186;-45
2022/08/12 08:50:54;;;;;;;3.00;2.00;;;;;;;;;;4955550;28;20550;-45
2022/08/12 08:53:20;;;;;;;3.33;1.97;;;;;;;;;;4951271;28;20223;-44
2022/08/12 08:55:48;;;;;;;3.57;1.60;;;;;;;;;;4955142;28;20179;-45
2022/08/12 08:58:14;;;;;;;3.80;1.80;;;;;;;;;;4956333;28;20501;-45
2022/08/12 09:00:41;;;;;;;4.10;1.90;;;;;;;;;;4954208;28;20249;-45
2022/08/12 09:03:07;;;;;;;4.57;1.80;;;;;;;;;;4967822;28;20182;-45
2022/08/12 09:05:34;;;;;;;2.43;1.73;;;;;;;;;;4956659;28;20187;-46
2022/08/12 09:08:02;;;;;;;2.43;1.70;;;;;;;;;;4953284;28;20574;-45
2022/08/12 09:10:28;;;;;;;3.67;1.50;;;;;;;;;;4953728;28;20180;-45
2022/08/12 09:15:40;;;;;;;1.70;1.60;;;;;;;;;;4958406;28;20200;-45
2022/08/12 09:18:07;;;;;;;2.73;1.80;;;;;;;;;;4952044;28;20181;-45
2022/08/12 09:20:34;;;;;;;3.57;2.10;;;;;;;;;;4955895;28;20264;-45
2022/08/12 09:23:01;;;;;;;4.13;2.20;;;;;;;;;;4956974;28;20186;-45
2022/08/12 09:25:30;;;;;;;2.77;2.03;;;;;;;;;;4954680;28;20299;-45
2022/08/12 09:27:59;;;;;;;4.63;2.30;;;;;;;;;;4953121;28;20186;-45
2022/08/12 09:30:26;;;;;;;2.57;2.20;;;;;;;;;;4955666;28;20244;-45
2022/08/12 09:32:53;;;;;;;2.23;1.90;;;;;;;;;;4955651;28;20189;-45
2022/08/12 09:35:27;;;;;;;4.57;2.33;;;;;;;;;;4950809;28;20283;-45
2022/08/12 09:37:54;;;;;;;2.13;1.87;;;;;;;;;;4954520;28;20239;-45
2022/08/12 09:40:21;;;;;;;4.77;2.17;;;;;;;;;;4955360;28;20655;-45
2022/08/12 09:45:33;;;;;;;3.20;2.10;;;;;;;;;;4953751;28;20193;-45
2022/08/12 09:48:02;;;;;;;3.60;2.00;;;;;;;;;;4955134;28;20405;-45
2022/08/12 09:50:28;;;;;;;3.80;1.80;;;;;;;;;;4947514;28;20482;-45
2022/08/12 09:53:15;;;;;;;3.67;2.07;;;;;;;;;;4948868;28;20647;-45
2022/08/12 09:55:48;;;;;;;4.50;2.03;;;;;;;;;;4953142;28;20173;-44
2022/08/12 09:58:15;;;;;;;7.13;1.83;;;;;;;;;;4956469;28;20351;-45
2022/08/12 10:00:46;;;;;;;4.53;1.90;;;;;;;;;;4953884;28;20205;-45
2022/08/12 10:03:13;;;;;;;3.20;2.00;;;;;;;;;;4952198;28;20178;-45
2022/08/12 10:05:42;;;;;;;3.67;2.00;;;;;;;;;;4953931;28;20626;-45
2022/08/12 10:08:09;;;;;;;3.07;1.80;;;;;;;;;;4950207;28;20820;-45
2022/08/12 10:13:42;;;;;;;2.90;1.77;;;;;;;;;;4953145;28;20229;-45
2022/08/12 10:16:13;;;;;;;2.87;1.90;;;;;;;;;;4951789;28;20503;-45
2022/08/12 10:18:43;;;;;;;5.17;1.90;;;;;;;;;;4949421;28;20182;-46
2022/08/12 10:21:10;;;;;;;4.27;1.83;;;;;;;;;;4954331;28;20185;-45
2022/08/12 10:23:37;;;;;;;2.90;1.93;;;;;;;;;;4951366;28;20201;-46
2022/08/12 10:31:33;;;;;;;4.70;1.73;;;;;;;;;;4953293;28;20224;-45
2022/08/12 10:33:59;;;;;;;7.03;1.93;;;;;;;;;;4950044;28;20669;-45
2022/08/12 10:36:25;;;;;;;4.93;1.90;;;;;;;;;;4949583;28;20666;-45
2022/08/12 10:38:53;;;;;;;2.17;1.70;;;;;;;;;;4950626;28;20492;-45
2022/08/12 10:44:04;;;;;;;2.70;1.70;;;;;;;;;;4949115;28;20233;-45
2022/08/12 10:46:31;;;;;;;5.53;1.90;;;;;;;;;;4951648;28;20445;-45
2022/08/12 10:48:58;;;;;;;4.10;1.50;;;;;;;;;;4953468;28;20432;-45
2022/08/12 10:51:27;;;;;;;5.83;1.80;;;;;;;;;;4958823;28;20583;-45
2022/08/12 10:53:54;;;;;;;7.43;1.87;;;;;;;;;;4954362;28;20276;-45
2022/08/12 10:56:21;;;;;;;8.50;1.70;;;;;;;;;;4954287;28;20173;-45
2022/08/12 10:58:47;;;;;;;3.00;1.90;;;;;;;;;;4954865;28;20178;-45
2022/08/12 11:01:15;;;;;;;2.97;1.60;;;;;;;;;;4955801;28;20178;-45
2022/08/12 11:03:41;;;;;;;1.97;1.50;;;;;;;;;;4955212;28;20253;-45
2022/08/12 11:06:08;;;;;;;2.87;1.47;;;;;;;;;;4957166;28;20271;-45
2022/08/12 11:08:36;;;;;;;3.77;1.50;;;;;;;;;;4957728;28;20928;-45
2022/08/12 11:11:04;;;;;;;2.40;1.80;;;;;;;;;;4950432;28;20213;-45
2022/08/12 11:13:31;;;;;;;3.07;1.60;;;;;;;;;;4953991;28;20800;-45
2022/08/12 11:15:57;;;;;;;3.60;1.70;;;;;;;;;;4957296;28;20192;-45
2022/08/12 11:18:23;;;;;;;4.07;1.70;;;;;;;;;;4954776;28;20166;-45
2022/08/12 11:20:49;;;;;;;2.57;1.67;;;;;;;;;;4956401;28;20730;-45
2022/08/12 11:23:17;;;;;;;4.37;1.30;;;;;;;;;;4958763;28;20276;-45
2022/08/12 11:25:44;;;;;;;3.53;1.87;;;;;;;;;;4955338;28;20464;-45
2022/08/12 11:28:10;;;;;;;2.73;1.60;;;;;;;;;;4955772;28;20182;-45
2022/08/12 11:30:36;;;;;;;2.83;1.40;;;;;;;;;;4956404;28;20189;-44
2022/08/12 11:33:02;;;;;;;3.13;1.40;;;;;;;;;;4955850;28;20433;-45
2022/08/12 11:35:28;;;;;;;5.90;1.50;;;;;;;;;;4955580;28;20598;-45
2022/08/12 11:37:55;;;;;;;2.63;1.60;;;;;;;;;;4953758;28;20574;-45
2022/08/12 11:40:21;;;;;;;2.90;1.47;;;;;;;;;;4953539;28;20803;-45
2022/08/12 11:42:47;;;;;;;2.03;1.50;;;;;;;;;;4953174;28;20205;-45
2022/08/12 11:45:13;;;;;;;2.67;1.70;;;;;;;;;;4958449;28;20827;-45
2022/08/12 11:47:39;;;;;;;3.47;1.63;;;;;;;;;;4953391;28;20185;-45
2022/08/12 11:50:06;;;;;;;3.50;1.53;;;;;;;;;;4953473;28;20186;-45
2022/08/12 11:52:32;;;;;;;7.83;1.73;;;;;;;;;;4954841;28;20225;-45
2022/08/12 11:54:58;;;;;;;3.23;1.53;;;;;;;;;;4955700;28;20494;-44
2022/08/12 11:57:24;;;;;;;1.70;1.33;;;;;;;;;;4956230;28;20166;-45
2022/08/12 11:59:50;;;;;;;3.63;1.40;;;;;;;;;;4957784;28;20178;-45
2022/08/12 12:02:17;;;;;;;3.40;1.63;;;;;;;;;;4954453;28;20181;-45
2022/08/12 12:04:43;;;;;;;2.90;1.70;;;;;;;;;;4966303;28;20745;-45
2022/08/12 12:07:09;;;;;;;4.07;1.50;;;;;;;;;;4958556;28;20173;-45
2022/08/12 12:09:35;;;;;;;4.43;1.50;;;;;;;;;;4956211;28;20170;-45
2022/08/12 12:12:03;;;;;;;2.77;1.50;;;;;;;;;;4954213;28;20222;-45
2022/08/12 12:14:29;;;;;;;1.77;1.47;;;;;;;;;;4956998;28;20505;-45
2022/08/12 12:16:56;;;;;;;1.43;1.30;;;;;;;;;;4955053;28;20179;-45
2022/08/12 12:19:22;;;;;;;4.43;1.20;;;;;;;;;;4953967;28;20618;-45
2022/08/12 12:21:48;;;;;;;2.57;1.30;;;;;;;;;;4957909;28;20723;-45
2022/08/12 12:24:14;;;;;;;2.93;1.30;;;;;;;;;;4954343;28;20178;-45
2022/08/12 12:26:40;;;;;;;4.70;1.63;;;;;;;;;;4951624;28;20809;-46
2022/08/12 12:29:06;;;;;;;2.63;1.23;;;;;;;;;;4955836;28;20559;-45
2022/08/12 12:31:32;;;;;;;4.20;1.40;;;;;;;;;;4954937;28;20204;-45
2022/08/12 12:33:58;;;;;;;3.00;1.50;;;;;;;;;;4953787;28;20535;-45
2022/08/12 12:36:24;;;;;;;2.40;1.30;;;;;;;;;;4956419;28;20194;-45
2022/08/12 12:38:50;;;;;;;2.07;1.47;;;;;;;;;;4956669;28;20341;-45
2022/08/12 12:41:17;;;;;;;1.40;1.30;;;;;;;;;;4954367;28;20178;-45
2022/08/12 12:43:43;;;;;;;3.37;1.20;;;;;;;;;;4951452;28;20675;-45
2022/08/12 12:46:09;;;;;;;2.50;1.30;;;;;;;;;;4955456;28;20214;-45
2022/08/12 12:48:35;;;;;;;3.07;1.40;;;;;;;;;;4957219;28;20202;-45
2022/08/12 12:51:16;;;;;;;1.77;1.40;;;;;;;;;;4953326;28;20288;-45
2022/08/12 12:53:45;;;;;;;3.30;1.30;;;;;;;;;;4956088;28;21354;-45
2022/08/12 12:56:19;;;;;;;1.83;1.30;;;;;;;;;;4954431;28;20179;-45
2022/08/12 12:58:48;;;;;;;2.87;1.50;;;;;;;;;;4958061;28;20832;-45
2022/08/12 13:01:17;;;;;;;5.70;1.60;;;;;;;;;;4948604;28;20411;-45
2022/08/12 13:03:44;;;;;;;1.53;1.40;;;;;;;;;;4955612;28;20182;-45
2022/08/12 13:06:10;;;;;;;3.30;1.53;;;;;;;;;;4953684;28;20784;-45
2022/08/12 13:08:36;;;;;;;3.03;1.40;;;;;;;;;;4951665;28;20178;-45
2022/08/12 13:11:03;;;;;;;2.27;1.50;;;;;;;;;;4956099;28;20193;-44
2022/08/12 13:13:31;;;;;;;1.20;1.10;;;;;;;;;;4954513;28;20202;-45
2022/08/12 13:15:59;;;;;;;4.37;1.60;;;;;;;;;;4956101;28;20278;-44
2022/08/12 13:18:30;;;;;;;2.43;1.67;;;;;;;;;;4957119;28;20374;-45
2022/08/12 13:20:57;;;;;;;3.63;1.20;;;;;;;;;;4959004;28;20252;-45
2022/08/12 13:23:23;;;;;;;2.07;1.50;;;;;;;;;;4958485;28;20179;-44
2022/08/12 13:25:49;;;;;;;1.90;1.50;;;;;;;;;;4958080;28;20175;-45
2022/08/12 13:28:30;;;;;;;2.20;1.27;;;;;;;;;;4958681;28;20267;-45
2022/08/12 13:30:58;;;;;;;2.93;1.53;;;;;;;;;;4975592;28;20190;-45
2022/08/12 13:33:25;;;;;;;1.37;1.23;;;;;;;;;;4958642;28;20186;-45
2022/08/12 13:35:52;;;;;;;1.60;1.40;;;;;;;;;;4959155;28;20261;-45
2022/08/12 13:38:18;;;;;;;2.80;1.20;;;;;;;;;;4961009;28;20187;-45
2022/08/12 13:40:45;;;;;;;2.73;1.40;;;;;;;;;;4957738;28;20183;-45
2022/08/12 13:43:16;;;;;;;3.13;1.40;;;;;;;;;;4958548;28;20953;-45
2022/08/12 13:45:42;;;;;;;2.10;1.47;;;;;;;;;;4959212;28;20449;-45
2022/08/12 13:48:08;;;;;;;2.13;1.50;;;;;;;;;;4960121;28;20182;-45
2022/08/12 13:50:36;;;;;;;1.33;1.23;;;;;;;;;;4954352;28;20175;-45
2022/08/12 13:53:08;;;;;;;1.97;1.50;;;;;;;;;;4955690;28;20187;-45
2022/08/12 13:55:35;;;;;;;2.33;1.10;;;;;;;;;;4957644;28;20819;-45
2022/08/12 13:58:04;;;;;;;3.00;1.30;;;;;;;;;;4955028;28;20202;-45
2022/08/12 14:00:30;;;;;;;2.10;1.20;;;;;;;;;;4954655;28;20232;-45
2022/08/12 14:02:57;;;;;;;1.57;1.47;;;;;;;;;;4958823;28;20190;-45
2022/08/12 14:05:23;;;;;;;1.80;1.23;;;;;;;;;;4956640;28;20174;-45
2022/08/12 14:07:52;;;;;;;2.27;1.20;;;;;;;;;;4954530;28;20187;-45
2022/08/12 14:10:37;;;;;;;1.20;1.10;;;;;;;;;;4952027;28;20179;-45
2022/08/12 14:13:19;;;;;;;3.03;1.10;;;;;;;;;;4957008;28;20185;-45
2022/08/12 14:15:51;;;;;;;1.40;1.30;;;;;;;;;;4958867;28;20188;-45
2022/08/12 14:18:22;;;;;;;2.23;1.17;;;;;;;;;;4955113;28;20293;-45
2022/08/12 14:20:49;;;;;;;1.20;1.10;;;;;;;;;;4959445;28;20171;-45
2022/08/12 14:23:16;;;;;;;2.30;1.50;;;;;;;;;;4960768;28;20187;-45
2022/08/12 14:25:42;;;;;;;2.27;1.20;;;;;;;;;;4959351;28;20364;-45
2022/08/12 14:28:14;;;;;;;1.47;1.10;;;;;;;;;;4958476;28;20179;-45
2022/08/12 14:31:00;;;;;;;1.63;1.20;;;;;;;;;;4957556;28;20210;-45
2022/08/12 14:33:32;;;;;;;2.27;1.10;;;;;;;;;;4958579;28;20175;-45
2022/08/12 14:35:59;;;;;;;2.30;1.20;;;;;;;;;;4959219;28;20182;-46
2022/08/12 14:38:26;;;;;;;2.43;1.27;;;;;;;;;;4955812;28;20219;-45
2022/08/12 14:40:57;;;;;;;2.77;1.10;;;;;;;;;;4960213;28;20257;-46
2022/08/12 14:43:26;;;;;;;2.90;1.27;;;;;;;;;;4955413;28;20203;-45
2022/08/12 14:45:53;;;;;;;2.47;1.30;;;;;;;;;;4957585;28;20246;-46
2022/08/12 14:48:19;;;;;;;1.50;1.40;;;;;;;;;;4958159;28;20737;-46
2022/08/12 14:50:49;;;;;;;1.00;1.00;;;;;;;;;;4958400;28;20940;-46
2022/08/12 14:53:16;;;;;;;2.67;1.40;;;;;;;;;;4956996;28;20179;-45
2022/08/12 14:55:44;;;;;;;1.53;1.30;;;;;;;;;;4956574;28;20180;-46
2022/08/12 14:58:10;;;;;;;1.30;1.20;;;;;;;;;;4956116;28;20181;-46
2022/08/12 15:03:26;;;;;;;3.17;1.50;;;;;;;;;;4955691;28;20231;-45
2022/08/12 15:05:54;;;;;;;2.70;1.20;;;;;;;;;;4955995;28;20246;-46
2022/08/12 15:08:23;;;;;;;1.30;1.20;;;;;;;;;;4953537;28;20191;-46
2022/08/12 15:10:49;;;;;;;1.37;1.10;;;;;;;;;;4955589;28;21048;-46
2022/08/12 15:13:17;;;;;;;2.23;1.20;;;;;;;;;;4957439;28;20223;-46
2022/08/12 15:15:44;;;;;;;2.07;1.30;;;;;;;;;;4953431;28;20208;-45
2022/08/12 15:18:11;;;;;;;3.23;1.27;;;;;;;;;;4955958;28;20180;-45
2022/08/12 15:20:37;;;;;;;2.00;1.30;;;;;;;;;;4955275;28;20241;-45
2022/08/12 15:23:05;;;;;;;1.80;1.23;;;;;;;;;;4954080;28;21277;-45
2022/08/12 15:25:31;;;;;;;2.70;1.60;;;;;;;;;;4962419;28;20234;-45
2022/08/12 15:27:58;;;;;;;1.43;1.30;;;;;;;;;;4956465;28;20187;-45
2022/08/12 15:30:25;;;;;;;1.87;1.30;;;;;;;;;;4948809;28;20551;-45
2022/08/12 15:32:52;;;;;;;1.53;1.33;;;;;;;;;;4946892;28;20631;-45
2022/08/12 15:35:19;;;;;;;1.60;1.13;;;;;;;;;;4956564;28;20351;-43
2022/08/12 15:37:55;;;;;;;3.47;1.30;;;;;;;;;;4954870;28;20190;-44
2022/08/12 15:40:23;;;;;;;2.77;1.30;;;;;;;;;;4952209;28;20897;-44
2022/08/12 15:42:49;;;;;;;2.47;1.30;;;;;;;;;;4957667;28;20856;-44
2022/08/12 15:45:15;;;;;;;1.80;1.43;;;;;;;;;;4956980;28;20336;-45
2022/08/12 15:47:41;;;;;;;2.97;1.50;;;;;;;;;;4952486;28;20190;-44
2022/08/12 15:50:08;;;;;;;3.10;1.37;;;;;;;;;;4956411;28;20194;-44
2022/08/12 15:52:34;;;;;;;2.10;1.50;;;;;;;;;;4959868;28;20470;-43
2022/08/12 15:55:00;;;;;;;1.97;1.27;;;;;;;;;;4971383;28;20242;-44
2022/08/12 15:57:27;;;;;;;1.40;1.10;;;;;;;;;;4953272;28;22914;-46
2022/08/12 15:59:55;;;;;;;4.50;1.50;;;;;;;;;;4955154;28;20193;-44
2022/08/12 16:02:21;;;;;;;2.17;1.20;;;;;;;;;;4956880;28;20368;-44
2022/08/12 16:04:49;;;;;;;1.67;1.33;;;;;;;;;;4957265;28;20186;-44
2022/08/12 16:07:20;;;;;;;3.23;1.10;;;;;;;;;;4950574;28;20200;-44
2022/08/12 16:09:46;;;;;;;2.93;1.33;;;;;;;;;;4953890;28;20270;-44
2022/08/12 16:12:12;;;;;;;2.33;1.50;;;;;;;;;;4951646;28;20225;-44
2022/08/12 16:14:38;;;;;;;3.60;1.60;;;;;;;;;;4953959;28;20572;-44
2022/08/12 16:17:04;;;;;;;3.33;1.23;;;;;;;;;;4955792;28;20384;-43
2022/08/12 16:19:32;;;;;;;1.90;1.50;;;;;;;;;;4954714;28;20423;-44
2022/08/12 16:21:58;;;;;;;1.43;1.30;;;;;;;;;;4950920;28;20644;-43
2022/08/12 16:24:24;;;;;;;2.67;1.57;;;;;;;;;;4949899;28;20218;-42
2022/08/12 16:26:51;;;;;;;3.63;1.50;;;;;;;;;;4948386;28;20291;-43
2022/08/12 16:29:23;;;;;;;4.77;1.50;;;;;;;;;;4953422;28;20783;-44
2022/08/12 16:31:49;;;;;;;1.80;1.40;;;;;;;;;;4951781;28;20182;-44
2022/08/12 16:34:16;;;;;;;4.27;1.33;;;;;;;;;;4952133;28;20226;-43
2022/08/12 16:36:44;;;;;;;3.03;1.40;;;;;;;;;;4949465;28;20192;-44